Time;durP1;ratioP1;P1;durP2;ratioP2;P2;SDS_P1;SDS_P2;PMS_P1;PMS_P2;Temp;Humidity;BMP_temperature;BMP_pressure;BME280_temperature;BME280_humidity;BME280_pressure;Samples;Min_cycle;Max_cycle;Signal;HPM_P1;HPM_P2
2021/04/20 00:02:22;;;;;;;;;;;17.80;94.10;;;;;;5019022;28;19951;-70
2021/04/20 00:04:50;;;;;;;;;;;17.90;93.40;;;;;;5033447;28;19916;-73
2021/04/20 00:07:17;;;;;;;;;;;18.30;92.50;;;;;;5033303;28;19921;-73
2021/04/20 00:09:44;;;;;;;;;;;18.40;91.80;;;;;;5033603;28;19909;-73
2021/04/20 00:12:10;;;;;;;;;;;18.70;91.70;;;;;;5032791;28;20023;-71
2021/04/20 00:14:37;;;;;;;;;;;18.70;91.70;;;;;;5033211;28;19917;-72
2021/04/20 00:17:05;;;;;;;;;;;18.80;91.20;;;;;;5032697;28;19913;-73
2021/04/20 00:19:31;;;;;;;;;;;18.80;91.60;;;;;;5033481;28;20319;-73
2021/04/20 00:21:58;;;;;;;;;;;18.90;90.80;;;;;;5020325;28;19945;-72
2021/04/20 00:24:25;;;;;;;;;;;18.90;90.60;;;;;;5013731;28;19910;-72
2021/04/20 00:26:51;;;;;;;;;;;18.80;90.80;;;;;;5014045;28;19924;-72
2021/04/20 00:29:21;;;;;;;;;;;18.80;91.00;;;;;;5013846;28;20269;-72
2021/04/20 00:31:48;;;;;;;;;;;18.80;90.50;;;;;;5013753;28;19925;-73
2021/04/20 00:34:14;;;;;;;;;;;18.70;90.50;;;;;;5029667;28;19910;-72
2021/04/20 00:36:41;;;;;;;;;;;18.80;89.70;;;;;;5033342;28;20287;-72
2021/04/20 00:39:07;;;;;;;;;;;18.80;90.80;;;;;;5033009;28;20371;-72
2021/04/20 00:41:35;;;;;;;;;;;18.80;89.30;;;;;;5019898;28;19913;-71
2021/04/20 00:44:02;;;;;;;;;;;19.00;86.70;;;;;;5013585;28;19918;-72
2021/04/20 00:46:29;;;;;;;;;;;19.20;88.40;;;;;;5013603;28;19964;-71
2021/04/20 00:48:57;;;;;;;;;;;19.10;87.30;;;;;;5030398;28;19955;-71
2021/04/20 00:51:23;;;;;;;;;;;19.10;85.10;;;;;;5037651;28;19914;-72
2021/04/20 00:53:50;;;;;;;;;;;19.20;85.20;;;;;;5029356;28;19917;-72
2021/04/20 00:56:19;;;;;;;;;;;19.30;83.60;;;;;;5016182;28;19921;-72
2021/04/20 00:58:46;;;;;;;;;;;19.20;85.20;;;;;;4993793;28;19917;-71
2021/04/20 01:01:13;;;;;;;;;;;19.20;85.30;;;;;;4993639;28;19909;-72
2021/04/20 01:03:45;;;;;;;;;;;19.10;86.70;;;;;;5005075;28;19910;-71
2021/04/20 01:06:15;;;;;;;;;;;19.20;86.00;;;;;;5012978;28;20437;-70
2021/04/20 01:08:42;;;;;;;;;;;19.80;84.70;;;;;;5013371;28;19964;-72
2021/04/20 01:11:09;;;;;;;;;;;20.40;84.40;;;;;;5013292;28;19915;-70
2021/04/20 01:13:36;;;;;;;;;;;20.60;82.30;;;;;;5013780;28;19910;-71
2021/04/20 01:16:03;;;;;;;;;;;20.90;82.20;;;;;;5017183;28;19913;-70
2021/04/20 01:18:32;;;;;;;;;;;20.90;76.50;;;;;;4999369;28;20267;-70
2021/04/20 01:21:00;;;;;;;;;;;20.70;78.80;;;;;;5016574;28;19920;-68
2021/04/20 01:23:35;;;;;;;;;;;20.90;76.20;;;;;;5016937;28;19971;-71
2021/04/20 01:26:02;;;;;;;;;;;20.90;75.80;;;;;;5016877;28;20431;-71
2021/04/20 01:28:29;;;;;;;;;;;20.90;76.30;;;;;;5016771;28;19917;-71
2021/04/20 01:30:58;;;;;;;;;;;20.80;75.10;;;;;;5016598;28;19969;-70
2021/04/20 01:33:27;;;;;;;;;;;20.70;76.60;;;;;;5007550;28;19956;-72
2021/04/20 01:35:55;;;;;;;;;;;20.50;76.30;;;;;;4997084;28;20411;-70
2021/04/20 01:38:22;;;;;;;;;;;20.50;75.30;;;;;;4997018;28;20304;-71
2021/04/20 01:40:49;;;;;;;;;;;20.40;75.00;;;;;;4996944;28;19996;-70
2021/04/20 01:43:17;;;;;;;;;;;20.30;75.20;;;;;;4994179;28;20364;-69
2021/04/20 01:45:43;;;;;;;;;;;20.20;75.80;;;;;;5016473;28;20284;-70
2021/04/20 01:48:11;;;;;;;;;;;20.10;76.00;;;;;;5016841;28;19909;-70
2021/04/20 01:50:41;;;;;;;;;;;20.00;75.90;;;;;;5016226;28;20367;-71
2021/04/20 01:53:08;;;;;;;;;;;20.00;75.80;;;;;;5016773;28;20487;-72
2021/04/20 01:55:35;;;;;;;;;;;20.00;76.90;;;;;;5016386;28;20364;-71
2021/04/20 01:58:02;;;;;;;;;;;20.10;74.30;;;;;;5015679;28;20279;-72
2021/04/20 02:00:29;;;;;;;;;;;20.10;76.70;;;;;;5031555;28;19920;-71
2021/04/20 02:02:55;;;;;;;;;;;20.20;76.80;;;;;;5035837;28;19948;-72
2021/04/20 02:05:23;;;;;;;;;;;20.20;76.70;;;;;;5035629;28;19923;-72
2021/04/20 02:07:49;;;;;;;;;;;20.10;76.30;;;;;;4995505;28;20020;-70
2021/04/20 02:10:16;;;;;;;;;;;20.10;76.00;;;;;;4997631;28;19910;-72
2021/04/20 02:12:44;;;;;;;;;;;20.00;77.00;;;;;;4995664;28;19917;-70
2021/04/20 02:15:15;;;;;;;;;;;20.00;76.40;;;;;;4995762;28;20276;-71
2021/04/20 02:17:42;;;;;;;;;;;20.00;77.10;;;;;;4995664;28;19914;-73
2021/04/20 02:20:11;;;;;;;;;;;20.10;77.50;;;;;;5003241;28;19948;-72
2021/04/20 02:22:39;;;;;;;;;;;20.20;78.80;;;;;;5015566;28;19917;-71
2021/04/20 02:25:06;;;;;;;;;;;20.20;77.90;;;;;;5017459;28;19916;-71
2021/04/20 02:27:34;;;;;;;;;;;20.20;78.80;;;;;;5019782;28;19914;-71
2021/04/20 02:30:03;;;;;;;;;;;20.20;76.40;;;;;;5015325;28;19936;-69
2021/04/20 02:32:31;;;;;;;;;;;20.20;77.20;;;;;;5014204;28;19924;-71
2021/04/20 02:35:06;;;;;;;;;;;20.10;77.80;;;;;;5015153;28;20404;-70
2021/04/20 02:37:34;;;;;;;;;;;20.30;76.70;;;;;;4989923;28;19914;-71
2021/04/20 02:40:01;;;;;;;;;;;20.20;75.80;;;;;;4996046;28;19914;-70
2021/04/20 02:42:28;;;;;;;;;;;20.20;77.60;;;;;;4996150;28;19910;-71
2021/04/20 02:44:54;;;;;;;;;;;20.20;75.30;;;;;;4995584;28;19965;-70
2021/04/20 02:47:24;;;;;;;;;;;20.10;77.50;;;;;;4995770;28;19918;-71
2021/04/20 02:49:51;;;;;;;;;;;20.20;78.30;;;;;;5016213;28;20369;-71
2021/04/20 02:52:18;;;;;;;;;;;20.10;76.20;;;;;;5015274;28;20008;-71
2021/04/20 02:54:45;;;;;;;;;;;20.20;78.00;;;;;;5014840;28;19921;-70
2021/04/20 02:57:12;;;;;;;;;;;20.20;76.90;;;;;;5019537;28;20011;-71
2021/04/20 02:59:39;;;;;;;;;;;20.20;76.70;;;;;;5034899;28;19913;-69
2021/04/20 03:02:06;;;;;;;;;;;20.10;77.20;;;;;;5026761;28;20004;-69
2021/04/20 03:04:34;;;;;;;;;;;20.20;77.50;;;;;;5015134;28;19976;-70
2021/04/20 03:07:01;;;;;;;;;;;20.30;77.40;;;;;;5014514;28;20367;-71
2021/04/20 03:09:29;;;;;;;;;;;20.40;77.70;;;;;;5015064;28;19910;-70
2021/04/20 03:11:59;;;;;;;;;;;20.50;78.20;;;;;;5014905;28;19948;-71
2021/04/20 03:14:27;;;;;;;;;;;20.40;77.80;;;;;;5014797;28;19910;-70
2021/04/20 03:16:55;;;;;;;;;;;20.40;76.70;;;;;;5013834;28;20276;-71
2021/04/20 03:19:22;;;;;;;;;;;20.30;78.30;;;;;;5014885;28;19964;-72
2021/04/20 03:21:50;;;;;;;;;;;20.30;80.50;;;;;;5013247;28;19917;-71
2021/04/20 03:24:37;;;;;;;;;;;20.40;77.80;;;;;;5014588;28;19951;-71
2021/04/20 03:27:06;;;;;;;;;;;20.50;78.80;;;;;;4999533;28;19921;-70
2021/04/20 03:29:33;;;;;;;;;;;20.50;77.80;;;;;;4994666;28;20391;-71
2021/04/20 03:32:00;;;;;;;;;;;20.40;78.90;;;;;;4977383;28;20004;-71
2021/04/20 03:34:31;;;;;;;;;;;20.40;76.70;;;;;;4995044;28;19964;-71
2021/04/20 03:37:06;;;;;;;;;;;20.30;77.60;;;;;;4993952;28;20280;-70
2021/04/20 03:39:44;;;;;;;;;;;20.30;78.90;;;;;;5034214;28;19967;-72
2021/04/20 03:42:16;;;;;;;;;;;20.20;79.20;;;;;;5034303;28;19951;-72
2021/04/20 03:44:44;;;;;;;;;;;20.30;78.60;;;;;;5034077;28;19909;-70
2021/04/20 03:47:20;;;;;;;;;;;20.40;79.90;;;;;;5016182;28;20267;-71
2021/04/20 03:49:48;;;;;;;;;;;20.40;77.70;;;;;;5033871;28;20474;-71
2021/04/20 03:52:29;;;;;;;;;;;20.40;78.40;;;;;;5034116;28;19952;-72
2021/04/20 03:54:59;;;;;;;;;;;20.40;78.10;;;;;;5018756;28;19921;-73
2021/04/20 03:57:28;;;;;;;;;;;20.40;78.50;;;;;;5003233;28;20379;-72
2021/04/20 03:59:55;;;;;;;;;;;20.30;78.20;;;;;;5022052;28;19973;-71
2021/04/20 04:02:22;;;;;;;;;;;20.20;78.90;;;;;;5031535;28;20043;-70
2021/04/20 04:04:51;;;;;;;;;;;20.30;79.20;;;;;;5033480;28;20000;-71
2021/04/20 04:07:18;;;;;;;;;;;20.20;79.30;;;;;;4999505;28;19922;-70
2021/04/20 04:09:49;;;;;;;;;;;20.20;79.50;;;;;;5033862;28;19910;-70
2021/04/20 04:12:17;;;;;;;;;;;20.20;79.40;;;;;;5033661;28;19910;-70
2021/04/20 04:14:45;;;;;;;;;;;20.20;79.80;;;;;;5033466;28;19909;-69
2021/04/20 04:17:15;;;;;;;;;;;20.20;80.50;;;;;;5033699;28;20370;-70
2021/04/20 04:19:46;;;;;;;;;;;20.20;79.90;;;;;;5033460;28;19909;-70
2021/04/20 04:22:14;;;;;;;;;;;20.10;80.60;;;;;;5033031;28;19909;-70
2021/04/20 04:25:10;;;;;;;;;;;20.20;81.10;;;;;;4994114;28;19914;-70
2021/04/20 04:27:44;;;;;;;;;;;20.20;80.70;;;;;;5011057;28;20272;-71
2021/04/20 04:30:11;;;;;;;;;;;20.20;80.90;;;;;;4992597;28;19925;-72
2021/04/20 04:32:40;;;;;;;;;;;20.20;82.10;;;;;;4993857;28;20423;-70
2021/04/20 04:35:07;;;;;;;;;;;20.20;82.50;;;;;;4993401;28;19910;-71
2021/04/20 04:37:35;;;;;;;;;;;20.20;82.50;;;;;;4993753;28;20317;-72
2021/04/20 04:40:06;;;;;;;;;;;20.20;83.80;;;;;;4993764;28;19910;-71
2021/04/20 04:42:32;;;;;;;;;;;20.20;84.70;;;;;;4993809;28;19910;-72
2021/04/20 04:45:02;;;;;;;;;;;20.20;84.00;;;;;;4993734;28;19945;-70
2021/04/20 04:47:29;;;;;;;;;;;20.30;84.80;;;;;;4994857;28;19967;-72
2021/04/20 04:50:04;;;;;;;;;;;20.30;84.20;;;;;;5000108;28;19939;-71
2021/04/20 04:52:32;;;;;;;;;;;20.30;83.80;;;;;;5018679;28;19922;-71
2021/04/20 04:55:00;;;;;;;;;;;20.30;84.60;;;;;;5019628;28;19918;-71
2021/04/20 04:57:27;;;;;;;;;;;20.30;84.10;;;;;;5010762;28;19921;-70
2021/04/20 05:00:01;;;;;;;;;;;20.30;85.40;;;;;;5000333;28;19978;-72
2021/04/20 05:02:29;;;;;;;;;;;20.30;84.40;;;;;;5000240;28;20025;-70
2021/04/20 05:04:56;;;;;;;;;;;20.30;85.00;;;;;;5001436;28;20262;-70
2021/04/20 05:07:23;;;;;;;;;;;20.30;83.90;;;;;;5019761;28;20310;-71
2021/04/20 05:09:53;;;;;;;;;;;20.40;84.80;;;;;;5019675;28;19916;-70
2021/04/20 05:12:23;;;;;;;;;;;20.40;84.70;;;;;;5011278;28;19918;-70
2021/04/20 05:14:49;;;;;;;;;;;20.40;84.90;;;;;;5000139;28;19913;-70
2021/04/20 05:17:20;;;;;;;;;;;20.40;84.60;;;;;;5002352;28;19910;-71
2021/04/20 05:19:49;;;;;;;;;;;20.30;83.80;;;;;;5018742;28;20368;-71
2021/04/20 05:22:16;;;;;;;;;;;20.20;85.70;;;;;;5020693;28;19914;-70
2021/04/20 05:24:43;;;;;;;;;;;20.10;86.60;;;;;;5009531;28;19935;-70
2021/04/20 05:27:13;;;;;;;;;;;20.10;87.10;;;;;;4987314;28;20373;-71
2021/04/20 05:29:40;;;;;;;;;;;20.00;85.50;;;;;;4992608;28;20292;-73
2021/04/20 05:32:09;;;;;;;;;;;20.00;86.40;;;;;;5002228;28;19981;-73
2021/04/20 05:34:38;;;;;;;;;;;20.00;87.30;;;;;;5000433;28;20391;-70
2021/04/20 05:37:05;;;;;;;;;;;20.00;86.60;;;;;;4999919;28;20044;-72
2021/04/20 05:39:32;;;;;;;;;;;20.00;86.80;;;;;;4999783;28;19914;-73
2021/04/20 05:42:02;;;;;;;;;;;19.90;86.70;;;;;;4999919;28;19964;-73
2021/04/20 05:44:32;;;;;;;;;;;19.90;87.10;;;;;;5000065;28;20353;-72
2021/04/20 05:46:58;;;;;;;;;;;19.90;87.20;;;;;;4999436;28;20390;-72
2021/04/20 05:49:25;;;;;;;;;;;19.80;87.20;;;;;;5035183;28;19935;-73
2021/04/20 05:51:52;;;;;;;;;;;19.80;89.60;;;;;;5041585;28;19909;-73
2021/04/20 05:54:19;;;;;;;;;;;19.80;87.70;;;;;;5040565;28;20147;-71
2021/04/20 05:56:48;;;;;;;;;;;19.80;87.70;;;;;;5022669;28;19910;-72
2021/04/20 05:59:17;;;;;;;;;;;19.80;88.30;;;;;;5020958;28;19910;-71
2021/04/20 06:01:44;;;;;;;;;;;19.80;88.50;;;;;;5020565;28;19932;-70
2021/04/20 06:04:11;;;;;;;;;;;19.90;88.90;;;;;;5023359;28;20271;-74
2021/04/20 06:06:39;;;;;;;;;;;19.90;89.10;;;;;;5021454;28;20244;-72
2021/04/20 06:09:07;;;;;;;;;;;19.80;89.30;;;;;;5027552;28;20364;-73
2021/04/20 06:11:34;;;;;;;;;;;19.70;89.50;;;;;;5028296;28;19916;-71
2021/04/20 06:14:01;;;;;;;;;;;19.80;89.60;;;;;;5041646;28;19956;-72
2021/04/20 06:16:28;;;;;;;;;;;19.80;90.00;;;;;;5047258;28;19944;-72
2021/04/20 06:18:58;;;;;;;;;;;19.80;90.10;;;;;;5037859;28;19920;-73
2021/04/20 06:21:26;;;;;;;;;;;19.80;90.10;;;;;;5034412;28;19909;-71
2021/04/20 06:23:53;;;;;;;;;;;19.70;90.40;;;;;;5016311;28;19913;-71
2021/04/20 06:26:21;;;;;;;;;;;19.70;89.00;;;;;;5006977;28;20459;-72
2021/04/20 06:28:48;;;;;;;;;;;19.70;88.70;;;;;;5010229;28;19922;-71
2021/04/20 06:31:15;;;;;;;;;;;19.60;89.00;;;;;;5016007;28;19921;-70
2021/04/20 06:33:45;;;;;;;;;;;19.50;89.10;;;;;;5015770;28;19909;-72
2021/04/20 06:36:12;;;;;;;;;;;19.50;89.60;;;;;;5030238;28;19982;-71
2021/04/20 06:38:40;;;;;;;;;;;19.50;88.50;;;;;;5035750;28;19909;-71
2021/04/20 06:41:08;;;;;;;;;;;19.60;88.30;;;;;;5017771;28;19913;-71
2021/04/20 06:43:42;;;;;;;;;;;19.50;88.20;;;;;;5035141;28;19909;-70
2021/04/20 06:46:15;;;;;;;;;;;19.50;88.40;;;;;;5033803;28;19961;-70
2021/04/20 06:48:43;;;;;;;;;;;19.50;89.00;;;;;;5021121;28;19984;-71
2021/04/20 06:51:14;;;;;;;;;;;19.50;88.90;;;;;;5015443;28;19914;-70
2021/04/20 06:53:44;;;;;;;;;;;19.50;88.90;;;;;;5015847;28;19972;-71
2021/04/20 06:56:33;;;;;;;;;;;19.50;88.60;;;;;;5020426;28;19981;-69
2021/04/20 06:59:09;;;;;;;;;;;19.40;89.50;;;;;;5015487;28;19918;-71
2021/04/20 07:01:56;;;;;;;;;;;19.50;89.40;;;;;;5031090;28;19928;-72
2021/04/20 07:04:29;;;;;;;;;;;19.40;89.80;;;;;;4975259;28;19910;-70
2021/04/20 07:07:24;;;;;;;;;;;19.30;90.10;;;;;;5023006;28;19921;-70
2021/04/20 07:09:55;;;;;;;;;;;19.30;90.10;;;;;;4930962;28;19946;-71
2021/04/20 07:12:22;;;;;;;;;;;19.30;90.20;;;;;;5011428;28;19996;-70
2021/04/20 07:14:52;;;;;;;;;;;19.30;90.30;;;;;;5010964;28;19992;-72
2021/04/20 07:17:18;;;;;;;;;;;19.20;90.40;;;;;;5014041;28;20272;-69
2021/04/20 07:19:58;;;;;;;;;;;19.20;90.70;;;;;;5014232;28;19921;-70
2021/04/20 07:22:39;;;;;;;;;;;19.20;90.70;;;;;;5014933;28;19910;-71
2021/04/20 07:25:06;;;;;;;;;;;19.20;90.50;;;;;;4999518;28;19925;-70
2021/04/20 07:27:32;;;;;;;;;;;19.20;90.50;;;;;;4996849;28;19944;-71
2021/04/20 07:30:03;;;;;;;;;;;19.20;90.60;;;;;;5010080;28;19997;-69
2021/04/20 07:32:47;;;;;;;;;;;19.10;90.80;;;;;;5014419;28;19922;-71
2021/04/20 07:35:22;;;;;;;;;;;19.10;90.90;;;;;;5014074;28;19913;-72
2021/04/20 07:37:51;;;;;;;;;;;19.20;91.10;;;;;;5014380;28;19967;-71
2021/04/20 07:40:24;;;;;;;;;;;19.10;91.00;;;;;;5012628;28;20012;-72
2021/04/20 07:42:58;;;;;;;;;;;19.10;91.30;;;;;;5012109;28;20375;-71
2021/04/20 07:45:24;;;;;;;;;;;19.10;91.20;;;;;;5012142;28;19955;-70
2021/04/20 07:47:53;;;;;;;;;;;19.00;91.50;;;;;;5011901;28;19971;-71
2021/04/20 07:50:24;;;;;;;;;;;18.90;91.40;;;;;;5011694;28;19921;-71
2021/04/20 07:52:54;;;;;;;;;;;18.80;91.70;;;;;;5011275;28;19913;-70
2021/04/20 07:55:24;;;;;;;;;;;18.70;91.90;;;;;;5010439;28;19913;-70
2021/04/20 07:57:56;;;;;;;;;;;18.70;92.30;;;;;;5011479;28;19917;-68
2021/04/20 08:00:34;;;;;;;;;;;18.60;92.20;;;;;;5011438;28;20433;-69
2021/04/20 08:03:19;;;;;;;;;;;18.60;92.20;;;;;;5011325;28;19920;-72
2021/04/20 08:05:46;;;;;;;;;;;18.50;92.70;;;;;;4994356;28;19921;-72
2021/04/20 08:08:16;;;;;;;;;;;18.40;92.80;;;;;;5012130;28;19914;-71
2021/04/20 08:10:54;;;;;;;;;;;18.50;92.60;;;;;;5009891;28;19913;-72
2021/04/20 08:13:24;;;;;;;;;;;18.50;92.60;;;;;;5012266;28;19909;-71
2021/04/20 08:15:52;;;;;;;;;;;18.50;92.50;;;;;;5011608;28;20008;-71
2021/04/20 08:18:40;;;;;;;;;;;18.40;92.40;;;;;;5011631;28;20032;-69
2021/04/20 08:21:08;;;;;;;;;;;18.40;92.20;;;;;;5011455;28;19909;-72
2021/04/20 08:23:38;;;;;;;;;;;18.40;91.90;;;;;;5007392;28;19914;-71
2021/04/20 08:26:20;;;;;;;;;;;18.50;91.60;;;;;;4989412;28;19922;-70
2021/04/20 08:29:00;;;;;;;;;;;18.50;91.70;;;;;;4987941;28;19913;-69
2021/04/20 08:31:44;;;;;;;;;;;18.60;90.80;;;;;;5013154;28;19921;-68
2021/04/20 08:34:29;;;;;;;;;;;18.60;90.50;;;;;;5011304;28;20276;-72
2021/04/20 08:37:07;;;;;;;;;;;18.60;90.10;;;;;;5011103;28;19910;-71
2021/04/20 08:39:43;;;;;;;;;;;18.60;90.20;;;;;;5011716;28;19909;-71
2021/04/20 08:42:29;;;;;;;;;;;18.60;90.10;;;;;;5010933;28;19917;-68
2021/04/20 08:45:18;;;;;;;;;;;18.60;88.50;;;;;;5009282;28;19914;-71
2021/04/20 08:47:45;;;;;;;;;;;18.80;88.20;;;;;;5008945;28;19925;-71
2021/04/20 08:50:20;;;;;;;;;;;18.80;87.60;;;;;;5011224;28;19940;-69
2021/04/20 08:52:49;;;;;;;;;;;18.80;87.10;;;;;;5017751;28;19921;-71
2021/04/20 08:55:38;;;;;;;;;;;18.80;87.30;;;;;;4993552;28;19918;-68
2021/04/20 08:58:07;;;;;;;;;;;18.70;88.20;;;;;;5009348;28;19921;-70
2021/04/20 09:00:40;;;;;;;;;;;18.60;88.00;;;;;;5010343;28;19921;-71
2021/04/20 09:03:10;;;;;;;;;;;18.60;87.70;;;;;;5010267;28;19918;-69
2021/04/20 09:05:54;;;;;;;;;;;18.70;87.20;;;;;;5011357;28;20288;-71
2021/04/20 09:08:43;;;;;;;;;;;18.70;86.20;;;;;;5006842;28;19918;-71
2021/04/20 09:11:11;;;;;;;;;;;18.90;86.00;;;;;;5013354;28;19914;-71
2021/04/20 09:13:43;;;;;;;;;;;18.90;84.90;;;;;;5013032;28;19960;-70
2021/04/20 09:16:15;;;;;;;;;;;19.00;84.80;;;;;;5012965;28;19913;-70
2021/04/20 09:18:43;;;;;;;;;;;19.00;85.20;;;;;;5012521;28;19914;-70
2021/04/20 09:21:16;;;;;;;;;;;19.00;85.80;;;;;;5013070;28;19944;-72
2021/04/20 09:23:55;;;;;;;;;;;19.00;86.30;;;;;;5013169;28;19913;-72
2021/04/20 09:26:37;;;;;;;;;;;18.90;85.70;;;;;;5012200;28;19922;-69
2021/04/20 09:29:10;;;;;;;;;;;18.80;85.80;;;;;;4997434;28;19961;-69
2021/04/20 09:31:40;;;;;;;;;;;18.70;86.30;;;;;;4996834;28;19914;-67
2021/04/20 09:34:09;;;;;;;;;;;18.70;87.50;;;;;;5012837;28;19909;-68
2021/04/20 09:36:36;;;;;;;;;;;18.70;86.60;;;;;;5016701;28;19917;-68
2021/04/20 09:39:06;;;;;;;;;;;18.60;87.20;;;;;;5016614;28;20372;-71
2021/04/20 09:41:36;;;;;;;;;;;18.60;87.00;;;;;;5030594;28;19967;-71
2021/04/20 09:44:09;;;;;;;;;;;18.60;88.00;;;;;;5030878;28;19912;-69
2021/04/20 09:46:51;;;;;;;;;;;18.60;87.40;;;;;;5016636;28;19917;-70
2021/04/20 09:49:18;;;;;;;;;;;18.60;87.30;;;;;;5016612;28;19993;-71
2021/04/20 09:51:49;;;;;;;;;;;18.50;87.50;;;;;;5017218;28;19910;-71
2021/04/20 09:54:31;;;;;;;;;;;18.50;88.00;;;;;;5018339;28;20066;-71
2021/04/20 09:57:01;;;;;;;;;;;18.50;87.70;;;;;;5022457;28;19914;-68
2021/04/20 09:59:34;;;;;;;;;;;18.50;88.40;;;;;;5044446;28;19952;-69
2021/04/20 10:02:15;;;;;;;;;;;18.50;87.70;;;;;;5029692;28;19999;-71
2021/04/20 10:04:42;;;;;;;;;;;18.40;87.50;;;;;;5035927;28;19916;-70
2021/04/20 10:07:22;;;;;;;;;;;18.40;88.40;;;;;;5036043;28;19925;-71
2021/04/20 10:10:07;;;;;;;;;;;18.40;88.50;;;;;;5035995;28;20393;-71
2021/04/20 10:12:46;;;;;;;;;;;18.40;88.90;;;;;;5034420;28;19921;-72
2021/04/20 10:15:12;;;;;;;;;;;18.40;88.40;;;;;;5016178;28;19914;-71
2021/04/20 10:18:02;;;;;;;;;;;18.40;86.30;;;;;;5015870;28;19920;-70
2021/04/20 10:20:47;;;;;;;;;;;18.50;87.00;;;;;;5008277;28;19910;-72
2021/04/20 10:23:22;;;;;;;;;;;18.50;87.00;;;;;;5021833;28;19913;-69
2021/04/20 10:25:50;;;;;;;;;;;18.60;86.00;;;;;;5028840;28;19913;-70
2021/04/20 10:28:21;;;;;;;;;;;18.60;86.80;;;;;;5014852;28;19921;-71
2021/04/20 10:30:51;;;;;;;;;;;18.60;86.80;;;;;;5008967;28;20009;-71
2021/04/20 10:33:22;;;;;;;;;;;18.70;86.70;;;;;;5015090;28;19913;-72
2021/04/20 10:35:49;;;;;;;;;;;18.60;88.40;;;;;;5015328;28;19921;-72
2021/04/20 10:38:17;;;;;;;;;;;18.70;87.20;;;;;;5014273;28;19921;-71
2021/04/20 10:40:45;;;;;;;;;;;18.70;86.30;;;;;;5014562;28;19997;-69
2021/04/20 10:43:12;;;;;;;;;;;18.60;86.60;;;;;;5014841;28;19917;-70
2021/04/20 10:45:43;;;;;;;;;;;18.60;86.10;;;;;;5014193;28;19961;-69
2021/04/20 10:48:10;;;;;;;;;;;18.60;86.30;;;;;;5016298;28;20279;-68
2021/04/20 10:50:39;;;;;;;;;;;18.60;86.80;;;;;;5043132;28;19913;-71
2021/04/20 10:53:08;;;;;;;;;;;18.60;86.50;;;;;;5029455;28;19956;-70
2021/04/20 10:55:37;;;;;;;;;;;18.60;87.80;;;;;;5027173;28;19909;-71
2021/04/20 10:58:05;;;;;;;;;;;18.60;87.20;;;;;;5038009;28;19968;-71
2021/04/20 11:00:33;;;;;;;;;;;18.50;86.20;;;;;;5038704;28;19932;-71
2021/04/20 11:03:01;;;;;;;;;;;18.50;86.80;;;;;;5037851;28;20001;-72
2021/04/20 11:05:29;;;;;;;;;;;18.40;85.20;;;;;;5015388;28;19936;-70
2021/04/20 11:07:57;;;;;;;;;;;18.40;85.90;;;;;;5035517;28;19913;-70
2021/04/20 11:10:27;;;;;;;;;;;18.40;86.40;;;;;;5042778;28;19913;-72
2021/04/20 11:12:55;;;;;;;;;;;18.40;85.20;;;;;;5019209;28;19920;-72
2021/04/20 11:15:21;;;;;;;;;;;18.40;85.20;;;;;;5016484;28;19952;-72
2021/04/20 11:17:48;;;;;;;;;;;18.30;84.00;;;;;;5009465;28;20016;-71
2021/04/20 11:20:25;;;;;;;;;;;18.30;85.20;;;;;;4997403;28;19910;-72
2021/04/20 11:23:12;;;;;;;;;;;18.30;84.00;;;;;;5013687;28;20283;-69
2021/04/20 11:25:54;;;;;;;;;;;18.30;84.20;;;;;;5014022;28;19921;-70
2021/04/20 11:28:46;;;;;;;;;;;18.30;83.90;;;;;;5014067;28;19913;-70
2021/04/20 11:31:19;;;;;;;;;;;18.30;83.70;;;;;;5013888;28;19921;-72
2021/04/20 11:33:54;;;;;;;;;;;18.30;84.50;;;;;;5013891;28;19975;-71
2021/04/20 11:36:24;;;;;;;;;;;18.30;83.20;;;;;;5010514;28;20015;-72
2021/04/20 11:38:55;;;;;;;;;;;18.30;85.10;;;;;;5013842;28;19913;-71
2021/04/20 11:41:27;;;;;;;;;;;18.20;83.30;;;;;;5001866;28;19913;-71
2021/04/20 11:43:59;;;;;;;;;;;18.20;83.40;;;;;;5014493;28;19921;-71
2021/04/20 11:46:31;;;;;;;;;;;18.20;82.40;;;;;;5001434;28;19921;-71
2021/04/20 11:49:11;;;;;;;;;;;18.20;82.10;;;;;;5012667;28;19909;-70
2021/04/20 11:51:40;;;;;;;;;;;18.20;84.90;;;;;;5011903;28;20335;-70
2021/04/20 11:54:08;;;;;;;;;;;18.20;82.80;;;;;;5000217;28;19920;-71
2021/04/20 11:56:36;;;;;;;;;;;18.20;82.50;;;;;;4992317;28;20350;-71
2021/04/20 11:59:03;;;;;;;;;;;18.20;81.80;;;;;;4991060;28;20295;-69
2021/04/20 12:01:31;;;;;;;;;;;18.20;84.50;;;;;;4993819;28;20009;-71
2021/04/20 12:04:00;;;;;;;;;;;18.30;84.50;;;;;;4992276;28;19910;-71
2021/04/20 12:06:48;;;;;;;;;;;18.20;82.30;;;;;;4991975;28;20284;-71
2021/04/20 12:09:22;;;;;;;;;;;18.20;83.80;;;;;;4992189;28;20313;-70
2021/04/20 12:11:49;;;;;;;;;;;18.20;84.80;;;;;;5008037;28;19914;-69
2021/04/20 12:14:21;;;;;;;;;;;18.20;83.40;;;;;;5010952;28;20315;-70
2021/04/20 12:16:55;;;;;;;;;;;18.10;83.00;;;;;;5010926;28;19913;-71
2021/04/20 12:19:24;;;;;;;;;;;18.10;82.10;;;;;;5010504;28;19967;-70
2021/04/20 12:21:54;;;;;;;;;;;18.00;82.80;;;;;;5010433;28;19920;-69
2021/04/20 12:24:26;;;;;;;;;;;18.00;83.30;;;;;;4996877;28;19960;-69
2021/04/20 12:26:54;;;;;;;;;;;17.90;83.80;;;;;;5000834;28;19971;-69
2021/04/20 12:29:22;;;;;;;;;;;17.80;84.40;;;;;;5010606;28;19922;-70
2021/04/20 12:31:49;;;;;;;;;;;17.70;83.90;;;;;;5010928;28;19924;-70
2021/04/20 12:34:18;;;;;;;;;;;17.70;83.80;;;;;;5010522;28;19960;-67
2021/04/20 12:36:49;;;;;;;;;;;17.60;83.20;;;;;;5010182;28;19922;-69
2021/04/20 12:39:30;;;;;;;;;;;17.60;83.00;;;;;;5005073;28;19910;-68
2021/04/20 12:41:58;;;;;;;;;;;17.60;84.10;;;;;;5008467;28;19917;-69
2021/04/20 12:44:28;;;;;;;;;;;17.60;84.30;;;;;;5008907;28;19997;-68
2021/04/20 12:46:56;;;;;;;;;;;17.60;83.30;;;;;;5001542;28;19929;-68
2021/04/20 12:49:24;;;;;;;;;;;17.60;83.90;;;;;;4992634;28;19910;-70
2021/04/20 12:51:52;;;;;;;;;;;17.60;83.90;;;;;;5005174;28;20008;-71
2021/04/20 12:54:20;;;;;;;;;;;17.60;83.80;;;;;;5010832;28;20291;-69
2021/04/20 12:56:48;;;;;;;;;;;17.60;83.10;;;;;;5010497;28;19913;-69
2021/04/20 12:59:20;;;;;;;;;;;17.60;83.60;;;;;;5011182;28;19921;-70
2021/04/20 13:01:48;;;;;;;;;;;17.50;84.40;;;;;;5011500;28;20375;-68
2021/04/20 13:04:16;;;;;;;;;;;17.50;83.50;;;;;;5011023;28;20473;-68
2021/04/20 13:06:49;;;;;;;;;;;17.50;83.90;;;;;;5010402;28;20086;-67
2021/04/20 13:09:23;;;;;;;;;;;17.50;83.70;;;;;;5012368;28;20063;-69
2021/04/20 13:11:52;;;;;;;;;;;17.40;83.90;;;;;;5014941;28;20357;-69
2021/04/20 13:14:21;;;;;;;;;;;17.40;83.80;;;;;;5014882;28;19914;-68
2021/04/20 13:16:51;;;;;;;;;;;17.40;84.40;;;;;;5014387;28;19914;-68
2021/04/20 13:19:23;;;;;;;;;;;17.50;84.60;;;;;;5015069;28;19935;-69
2021/04/20 13:21:50;;;;;;;;;;;17.50;83.50;;;;;;5014997;28;20368;-67
2021/04/20 13:24:24;;;;;;;;;;;17.40;85.40;;;;;;5014899;28;19996;-69
2021/04/20 13:26:54;;;;;;;;;;;17.40;85.20;;;;;;5014041;28;19972;-68
2021/04/20 13:29:27;;;;;;;;;;;17.40;84.90;;;;;;5014440;28;20287;-69
2021/04/20 13:31:55;;;;;;;;;;;17.40;84.40;;;;;;5014049;28;20718;-70
2021/04/20 13:34:33;;;;;;;;;;;17.40;86.20;;;;;;5014260;28;19922;-69
2021/04/20 13:37:03;;;;;;;;;;;17.30;84.50;;;;;;5013525;28;19917;-68
2021/04/20 13:39:36;;;;;;;;;;;17.20;84.40;;;;;;5014700;28;19972;-68
2021/04/20 13:42:07;;;;;;;;;;;17.10;84.00;;;;;;5014502;28;20745;-69
2021/04/20 13:44:35;;;;;;;;;;;17.10;84.80;;;;;;5013984;28;19957;-68
2021/04/20 13:47:03;;;;;;;;;;;17.10;84.00;;;;;;5011131;28;20395;-69
2021/04/20 13:49:30;;;;;;;;;;;17.10;85.10;;;;;;5005276;28;19937;-68
2021/04/20 13:52:02;;;;;;;;;;;17.10;84.50;;;;;;5014154;28;19944;-70
2021/04/20 13:54:31;;;;;;;;;;;17.10;84.40;;;;;;5013605;28;19913;-70
2021/04/20 13:56:59;;;;;;;;;;;17.10;84.90;;;;;;4995573;28;19917;-69
2021/04/20 13:59:27;;;;;;;;;;;17.10;84.30;;;;;;5013299;28;20541;-69
2021/04/20 14:01:56;;;;;;;;;;;17.20;85.20;;;;;;5007618;28;19936;-69
2021/04/20 14:04:43;;;;;;;;;;;17.20;84.50;;;;;;5022435;28;19967;-71
2021/04/20 14:07:21;;;;;;;;;;;17.20;82.80;;;;;;5023710;28;19921;-69
2021/04/20 14:09:52;;;;;;;;;;;17.20;84.40;;;;;;5015634;28;19913;-70
2021/04/20 14:18:24;;;;;;;;;;;17.20;83.10;;;;;;4994980;28;19975;-71
2021/04/20 14:20:51;;;;;;;;;;;17.20;82.80;;;;;;4993330;28;19984;-70
2021/04/20 14:23:19;;;;;;;;;;;17.20;83.50;;;;;;4993814;28;19910;-68
2021/04/20 14:25:49;;;;;;;;;;;17.20;82.80;;;;;;4993854;28;19917;-70
2021/04/20 14:28:25;;;;;;;;;;;17.10;84.20;;;;;;4994028;28;19921;-71
2021/04/20 14:30:52;;;;;;;;;;;17.10;83.70;;;;;;4993444;28;20028;-70
2021/04/20 14:33:26;;;;;;;;;;;17.10;84.30;;;;;;4992587;28;19913;-71
2021/04/20 14:35:54;;;;;;;;;;;17.10;83.50;;;;;;4993508;28;19910;-71
2021/04/20 14:38:31;;;;;;;;;;;17.00;83.40;;;;;;4993882;28;19910;-70
2021/04/20 14:40:58;;;;;;;;;;;17.00;83.80;;;;;;4993538;28;19910;-71
2021/04/20 14:43:25;;;;;;;;;;;17.00;83.70;;;;;;4993733;28;20277;-70